Americus, GA (31709)

2:10 PM EST on February 09, 2016 (GMT -0500)
Wildwood Circle | | Change Station
CLOSE
Current Station
Personal Weather Station
Location: Americus, GA
Elevation: 402 ft
Nearby Weather Stations

Elev 402 ft 32.06 °N, 84.21 °W | Updated 9 minutes ago

Overcast
Overcast
46.0 °F
Feels Like 44 °F
N
3.9
Wind Variable Wind from West
Gusts 7.6 mph

Today
High -- | Low -- °F
--% Chance of Precip.
Yesterday
High -- | Low -- °F
Precip. -- in
Pressure 29.87 in
Visibility 10.0 miles
Clouds Overcast 6000 ft
Windchill 44 °F
Dew Point 2 °F
Humidity 16%
Rainfall 0.00 in
Snow Depth Not available.
7:24 AM 6:17 PM
New Moon, 2% visible
METAR KACJ 091855Z AUTO 28017G22KT 10SM OVC060 06/M07 A2987 RMK AO2
Pressure 29.87 in
Visibility 10.0 miles
Clouds Overcast 6000 ft
Windchill 44 °F
Dew Point 2 °F
Humidity 16%
Rainfall 0.00 in
Snow Depth Not available.
7:24 AM 6:17 PM
New Moon, 2% visible
METAR KACJ 091855Z AUTO 28017G22KT 10SM OVC060 06/M07 A2987 RMK AO2

10-Day Weather Forecast

Almanac

Astronomy

Feb. 09, 2016 Rise Set
Actual Time
Civil Twilight
Nautical Twilight
Astronomical Twilight
Moon
Length of Visible Light
Length of Day
Tomorrow will be .
, % of the Moon is Illuminated

Today's Extremes

State Highs State Lows

Community

WunderPhotos

Upload Photos

1,891,664 photos uploaded!

WunderBlog® & News

Nearby

Air Quality

  Air Quality AQ Index Pollutant
Not available.

Snow Depth

Station Depth Elevation

Earthquake Activity

City Distance Mag. Time & Date
Minimum magnitude displayed is 2.5.

Coastal Water Temperatures

Place Temperature

Stations

Nearby Weather Stations

Station Location Temp. Windchill Dew Point Humidity Wind Precip. Elev Updated Type
                   

Watches & Warnings

There are currently no watches in effect.